Time;durP1;ratioP1;P1;durP2;ratioP2;P2;SDS_P1;SDS_P2;PMS_P1;PMS_P2;Temp;Humidity;BMP_temperature;BMP_pressure;BME280_temperature;BME280_humidity;BME280_pressure;Samples;Min_cycle;Max_cycle;Signal;HPM_P1;HPM_P2
2021/05/19 00:00:37;;;;;;;1.17;0.40;;;;;;;27.68;30.90;96551.44;5024412;28;20040;-34
2021/05/19 00:03:02;;;;;;;1.75;0.20;;;;;;;27.68;30.98;96562.78;5028962;28;20028;-35
2021/05/19 00:05:28;;;;;;;0.40;0.30;;;;;;;27.67;30.95;96549.72;5029365;28;20032;-33
2021/05/19 00:07:53;;;;;;;1.02;0.50;;;;;;;27.68;30.85;96556.72;5028266;28;20041;-31
2021/05/19 00:10:19;;;;;;;0.82;0.20;;;;;;;27.67;30.88;96550.59;5025958;28;20032;-35
2021/05/19 00:12:44;;;;;;;0.63;0.30;;;;;;;27.65;30.81;96553.31;5030359;28;20040;-36
2021/05/19 00:15:10;;;;;;;0.65;0.32;;;;;;;27.68;30.94;96554.06;5028232;28;20055;-31
2021/05/19 00:17:42;;;;;;;0.80;0.15;;;;;;;27.65;30.95;96553.31;5032313;28;20075;-31
2021/05/19 00:20:09;;;;;;;0.65;0.40;;;;;;;27.65;30.96;96553.31;5030385;28;20336;-33
2021/05/19 00:22:34;;;;;;;0.28;0.20;;;;;;;27.65;30.96;96548.03;5033134;28;20033;-32
2021/05/19 00:24:59;;;;;;;1.10;0.40;;;;;;;27.65;31.00;96553.31;5036224;28;20051;-36
2021/05/19 00:27:25;;;;;;;0.77;0.20;;;;;;;27.64;30.85;96554.25;5028058;28;20610;-34
2021/05/19 00:29:52;;;;;;;0.75;0.22;;;;;;;27.64;30.85;96559.53;5031268;28;20033;-31
2021/05/19 00:32:17;;;;;;;0.40;0.30;;;;;;;27.64;30.88;96562.16;5036369;28;20036;-33
2021/05/19 00:34:44;;;;;;;0.32;0.20;;;;;;;27.63;30.94;96560.47;5032614;28;20039;-31
2021/05/19 00:37:09;;;;;;;2.55;0.30;;;;;;;27.63;30.90;96563.13;5026191;28;20044;-32
2021/05/19 00:39:35;;;;;;;1.02;0.20;;;;;;;27.64;30.84;96561.31;5019273;28;20052;-37
2021/05/19 00:42:00;;;;;;;0.90;0.22;;;;;;;27.64;30.76;96562.16;5028005;28;20142;-35
2021/05/19 00:44:25;;;;;;;0.93;0.25;;;;;;;27.63;30.94;96565.75;5026862;28;20160;-34
2021/05/19 00:46:52;;;;;;;2.13;0.32;;;;;;;27.63;30.83;96560.47;5026947;28;20032;-31
2021/05/19 00:49:18;;;;;;;0.17;0.13;;;;;;;27.64;30.83;96553.41;5027094;28;20487;-35
2021/05/19 00:51:43;;;;;;;0.25;0.20;;;;;;;27.64;30.80;96562.16;5035597;28;20028;-33
2021/05/19 00:54:09;;;;;;;1.55;0.20;;;;;;;27.65;30.94;96560.38;5033567;28;20099;-36
2021/05/19 00:56:34;;;;;;;1.23;0.20;;;;;;;27.63;30.83;96555.22;5031755;28;20068;-32
2021/05/19 00:59:00;;;;;;;0.98;0.30;;;;;;;27.64;31.02;96559.53;5017247;28;20122;-37
2021/05/19 01:01:25;;;;;;;0.85;0.30;;;;;;;27.62;30.83;96550.88;5031320;28;20139;-31
2021/05/19 01:03:51;;;;;;;0.40;0.30;;;;;;;27.64;30.78;96561.31;5030716;28;20036;-33
2021/05/19 01:06:29;;;;;;;0.20;0.20;;;;;;;27.63;30.85;96552.59;5004193;28;20031;-29
2021/05/19 01:11:39;;;;;;;0.15;0.15;;;;;;;27.62;30.87;96556.13;5033660;28;20781;-32
2021/05/19 01:14:04;;;;;;;0.90;0.38;;;;;;;27.62;30.75;96547.41;5024299;28;20029;-35
2021/05/19 01:16:30;;;;;;;1.10;0.38;;;;;;;27.62;30.80;96545.59;5031196;28;20040;-34
2021/05/19 01:18:55;;;;;;;0.70;0.22;;;;;;;27.62;30.90;96542.16;5031698;28;20411;-35
2021/05/19 01:21:20;;;;;;;0.43;0.32;;;;;;;27.61;30.78;96541.28;5032173;28;20375;-34
2021/05/19 01:23:46;;;;;;;0.88;0.20;;;;;;;27.61;30.78;96543.91;5036233;28;20344;-37
2021/05/19 01:26:11;;;;;;;0.30;0.20;;;;;;;27.61;30.86;96540.47;5009932;28;20506;-34
2021/05/19 01:28:37;;;;;;;0.43;0.20;;;;;;;27.62;30.86;96539.50;5035068;28;20044;-37
2021/05/19 01:31:03;;;;;;;0.45;0.30;;;;;;;27.61;30.82;96537.84;5035661;28;20044;-30
2021/05/19 01:33:28;;;;;;;0.35;0.25;;;;;;;27.60;30.79;96539.56;5038858;28;20048;-38
2021/05/19 01:35:54;;;;;;;0.85;0.30;;;;;;;27.57;30.78;96534.50;5027151;28;20116;-32
2021/05/19 01:38:19;;;;;;;0.10;0.10;;;;;;;27.59;30.54;96530.00;5024241;28;20025;-38
2021/05/19 01:40:44;;;;;;;0.10;0.10;;;;;;;27.60;30.76;96542.22;5036581;28;20029;-38
2021/05/19 01:43:10;;;;;;;0.52;0.22;;;;;;;27.60;30.74;96533.47;5038141;28;20036;-33
2021/05/19 01:45:35;;;;;;;0.52;0.13;;;;;;;27.60;30.73;96528.19;5026618;28;20170;-30
2021/05/19 01:48:01;;;;;;;0.20;0.10;;;;;;;27.59;30.73;96532.63;5032468;28;20048;-32
2021/05/19 01:50:29;;;;;;;0.77;0.30;;;;;;;27.60;30.79;96538.72;5036256;28;20067;-33
2021/05/19 01:52:56;;;;;;;0.25;0.20;;;;;;;27.60;30.75;96538.72;5039414;28;20036;-31
2021/05/19 01:55:22;;;;;;;0.63;0.30;;;;;;;27.59;30.73;96537.03;5037707;28;20025;-30
2021/05/19 01:57:48;;;;;;;0.60;0.30;;;;;;;27.59;30.73;96535.25;5023466;28;20035;-28
2021/05/19 02:00:14;;;;;;;0.10;0.10;;;;;;;27.58;30.76;96533.56;5031702;28;20111;-34
2021/05/19 02:02:40;;;;;;;0.20;0.20;;;;;;;27.58;30.83;96530.91;5033075;28;20060;-32
2021/05/19 02:05:06;;;;;;;0.57;0.20;;;;;;;27.59;30.71;96531.78;5037090;28;20028;-32
2021/05/19 02:07:35;;;;;;;1.08;0.40;;;;;;;27.59;30.75;96537.03;5013962;28;20029;-31
2021/05/19 02:10:00;;;;;;;0.52;0.20;;;;;;;27.58;30.76;96540.63;5025626;28;20040;-35
2021/05/19 02:12:26;;;;;;;0.30;0.20;;;;;;;27.58;30.83;96540.63;5028286;28;20063;-35
2021/05/19 02:14:51;;;;;;;4.30;0.60;;;;;;;27.57;31.07;96542.41;5033735;28;20784;-31
2021/05/19 02:17:16;;;;;;;2.75;0.70;;;;;;;27.58;30.53;96540.63;5037253;28;20118;-32
2021/05/19 02:19:42;;;;;;;0.73;0.22;;;;;;;27.57;30.58;96542.41;5037268;28;20559;-30
2021/05/19 02:22:07;;;;;;;3.00;0.40;;;;;;;27.58;30.76;96546.72;5034223;28;20021;-35
2021/05/19 02:24:33;;;;;;;4.63;0.43;;;;;;;27.57;30.63;96550.28;5037766;28;20045;-35
2021/05/19 02:26:58;;;;;;;1.85;0.38;;;;;;;27.54;30.80;96550.50;5037330;28;20126;-30
2021/05/19 02:29:24;;;;;;;1.45;0.45;;;;;;;27.57;30.70;96554.72;5023363;28;20030;-38
2021/05/19 02:31:49;;;;;;;0.80;0.25;;;;;;;27.56;30.81;96550.38;5029578;28;20546;-34
2021/05/19 02:34:14;;;;;;;0.73;0.40;;;;;;;27.55;30.78;96551.34;5022516;28;20452;-35
2021/05/19 02:36:40;;;;;;;0.22;0.20;;;;;;;27.55;30.74;96546.94;5032418;28;20080;-34
2021/05/19 02:39:11;;;;;;;1.08;0.20;;;;;;;27.55;30.66;96554.81;5028968;28;20022;-33
2021/05/19 02:41:37;;;;;;;0.90;0.28;;;;;;;27.55;30.69;96560.09;5031591;28;20025;-32
2021/05/19 02:44:04;;;;;;;0.65;0.28;;;;;;;27.54;30.76;96558.41;5036806;28;20592;-30
2021/05/19 02:46:30;;;;;;;0.77;0.30;;;;;;;27.54;30.71;96555.78;5006639;28;20025;-38
2021/05/19 02:49:01;;;;;;;1.58;0.50;;;;;;;27.54;30.74;96555.78;5036681;28;20998;-32
2021/05/19 02:51:33;;;;;;;1.05;0.20;;;;;;;27.52;30.66;96553.25;5034441;28;20090;-33
2021/05/19 02:53:59;;;;;;;1.40;0.25;;;;;;;27.53;30.60;96559.31;5030426;28;20075;-34
2021/05/19 02:56:24;;;;;;;0.43;0.17;;;;;;;27.53;30.63;96556.69;5032220;28;20120;-35
2021/05/19 02:58:50;;;;;;;1.55;0.30;;;;;;;27.53;30.68;96556.69;5029797;28;20749;-32
2021/05/19 03:01:15;;;;;;;1.23;0.30;;;;;;;27.52;30.66;96563.75;5006600;28;20033;-36
2021/05/19 03:03:40;;;;;;;1.88;0.40;;;;;;;27.51;30.61;96559.41;5030982;28;20051;-32
2021/05/19 03:06:06;;;;;;;0.73;0.20;;;;;;;27.51;30.76;96562.06;5017908;28;20415;-32
2021/05/19 03:08:31;;;;;;;0.47;0.20;;;;;;;27.51;30.70;96562.06;5029937;28;20969;-29
2021/05/19 03:10:57;;;;;;;0.32;0.10;;;;;;;27.52;30.69;96573.44;5032397;28;20060;-35
2021/05/19 03:13:22;;;;;;;0.40;0.20;;;;;;;27.52;30.70;96562.91;5034462;28;20053;-36
2021/05/19 03:15:47;;;;;;;0.60;0.30;;;;;;;27.52;30.80;96570.81;5032055;28;20039;-30
2021/05/19 03:18:13;;;;;;;0.28;0.28;;;;;;;27.50;30.54;96564.81;5036621;28;20026;-34
2021/05/19 03:20:38;;;;;;;0.95;0.20;;;;;;;27.51;30.55;96566.50;5033171;28;20936;-30
2021/05/19 03:23:03;;;;;;;0.20;0.15;;;;;;;27.51;30.84;96562.06;5031848;28;20048;-34
2021/05/19 03:25:29;;;;;;;0.75;0.20;;;;;;;27.51;30.67;96567.31;5033141;28;20518;-36
2021/05/19 03:27:54;;;;;;;0.90;0.28;;;;;;;27.51;31.08;96571.75;5032291;28;20415;-36
2021/05/19 03:30:20;;;;;;;0.03;0.03;;;;;;;27.50;30.73;96565.63;5034784;28;20091;-29
2021/05/19 03:32:45;;;;;;;1.20;0.30;;;;;;;27.50;30.70;96575.34;5033402;28;20060;-35
2021/05/19 03:35:11;;;;;;;0.25;0.22;;;;;;;27.50;30.64;96570.06;5040430;28;20499;-33
2021/05/19 03:37:37;;;;;;;0.90;0.20;;;;;;;27.50;30.71;96575.34;5034770;28;20036;-32
2021/05/19 03:40:04;;;;;;;0.17;0.15;;;;;;;27.49;30.60;96581.53;5021605;28;20329;-36
2021/05/19 03:42:29;;;;;;;2.08;0.32;;;;;;;27.49;30.61;96579.75;5028745;28;20118;-36
2021/05/19 03:44:55;;;;;;;0.82;0.20;;;;;;;27.49;30.63;96585.00;5035235;28;20029;-36
2021/05/19 03:47:20;;;;;;;0.63;0.20;;;;;;;27.48;30.65;96583.31;5032821;28;20067;-34
2021/05/19 03:49:48;;;;;;;0.63;0.38;;;;;;;27.49;30.74;96595.53;5036783;28;20036;-29
2021/05/19 03:52:14;;;;;;;0.10;0.10;;;;;;;27.49;30.64;96592.03;5035817;28;20682;-30
2021/05/19 03:54:39;;;;;;;0.77;0.20;;;;;;;27.48;30.72;96593.00;5032925;28;20024;-33
2021/05/19 03:57:05;;;;;;;0.10;0.10;;;;;;;27.47;30.72;96597.44;5025782;28;20056;-36
2021/05/19 03:59:31;;;;;;;0.47;0.28;;;;;;;27.48;30.70;96593.00;5029604;28;20060;-31
2021/05/19 04:01:57;;;;;;;0.98;0.20;;;;;;;27.48;30.71;96595.63;5031233;28;20109;-32
2021/05/19 04:04:22;;;;;;;0.82;0.38;;;;;;;27.47;30.60;96597.44;5032973;28;20035;-30
2021/05/19 04:06:47;;;;;;;0.63;0.20;;;;;;;27.47;30.72;96596.56;5022078;28;20114;-33
2021/05/19 04:09:13;;;;;;;0.52;0.20;;;;;;;27.47;30.75;96604.47;5036084;28;20028;-33
2021/05/19 04:11:39;;;;;;;1.05;0.38;;;;;;;27.48;30.69;96606.16;5033139;28;20044;-38
2021/05/19 04:14:04;;;;;;;3.30;0.40;;;;;;;27.47;30.48;96601.84;5034456;28;20111;-36
2021/05/19 04:16:30;;;;;;;1.55;0.30;;;;;;;27.46;30.67;96611.50;5027617;28;20029;-31
2021/05/19 04:18:55;;;;;;;0.40;0.17;;;;;;;27.44;30.66;96607.28;5033377;28;20127;-34
2021/05/19 04:21:20;;;;;;;0.28;0.20;;;;;;;27.47;30.58;96612.38;5034429;28;20029;-37
2021/05/19 04:23:46;;;;;;;1.13;0.22;;;;;;;27.46;30.61;96616.78;5031991;28;20040;-34
2021/05/19 04:26:11;;;;;;;0.65;0.20;;;;;;;27.45;30.61;96615.09;5026139;28;20026;-30
2021/05/19 04:28:37;;;;;;;0.57;0.25;;;;;;;27.45;30.64;96615.09;5036298;28;20036;-31
2021/05/19 04:31:02;;;;;;;0.20;0.20;;;;;;;27.45;30.62;96614.22;5030143;28;20037;-35
2021/05/19 04:33:28;;;;;;;0.40;0.10;;;;;;;27.46;30.62;96621.22;5037267;28;20031;-35
2021/05/19 04:35:53;;;;;;;0.45;0.20;;;;;;;27.44;30.68;96623.94;5026855;28;20032;-29
2021/05/19 04:38:18;;;;;;;0.95;0.20;;;;;;;27.44;30.50;96623.94;5034532;28;20055;-34
2021/05/19 04:40:46;;;;;;;0.47;0.30;;;;;;;27.44;30.67;96617.81;5033308;28;20039;-31
2021/05/19 04:43:11;;;;;;;1.58;0.20;;;;;;;27.44;30.66;96623.06;5035191;28;20025;-33
2021/05/19 04:45:37;;;;;;;0.10;0.10;;;;;;;27.43;30.65;96622.25;5033016;28;20029;-34
2021/05/19 04:48:02;;;;;;;0.30;0.20;;;;;;;27.44;30.68;96628.34;5029332;28;20038;-35
2021/05/19 04:50:28;;;;;;;0.20;0.20;;;;;;;27.42;30.68;96628.44;5027931;28;20659;-32
2021/05/19 04:52:53;;;;;;;1.30;0.32;;;;;;;27.45;30.68;96630.03;5033034;28;20279;-29
2021/05/19 04:55:19;;;;;;;0.82;0.20;;;;;;;27.43;30.62;96626.66;5028357;28;20568;-32
2021/05/19 04:57:44;;;;;;;0.10;0.10;;;;;;;27.43;30.71;96631.91;5026894;28;20044;-34
2021/05/19 05:00:10;;;;;;;3.03;0.32;;;;;;;27.43;30.67;96634.56;5027388;28;21826;-28
2021/05/19 05:02:37;;;;;;;0.65;0.15;;;;;;;27.42;30.73;96624.97;5025050;28;20127;-33
2021/05/19 05:05:04;;;;;;;0.73;0.25;;;;;;;27.43;30.50;96634.56;5028227;28;20041;-38
2021/05/19 05:07:29;;;;;;;0.35;0.15;;;;;;;27.43;30.66;96634.56;5034673;28;20147;-35
2021/05/19 05:09:56;;;;;;;0.40;0.20;;;;;;;27.42;30.61;96640.75;5019256;28;20499;-34
2021/05/19 05:12:22;;;;;;;1.98;0.32;;;;;;;27.42;30.68;96635.50;5028440;28;20768;-31
2021/05/19 05:14:47;;;;;;;1.10;0.30;;;;;;;27.42;30.76;96640.75;5017165;28;20041;-35
2021/05/19 05:17:12;;;;;;;0.73;0.30;;;;;;;27.42;30.59;96640.75;5031760;28;20049;-31
2021/05/19 05:19:38;;;;;;;0.10;0.10;;;;;;;27.41;30.66;96644.34;5035751;28;20040;-32
2021/05/19 05:22:03;;;;;;;1.27;0.65;;;;;;;27.41;30.61;96649.59;5033128;28;20025;-30
2021/05/19 05:24:29;;;;;;;1.70;0.25;;;;;;;27.41;30.64;96650.44;5038120;28;20024;-31
2021/05/19 05:26:55;;;;;;;0.15;0.10;;;;;;;27.41;30.67;96654.88;5030919;28;20526;-36
2021/05/19 05:29:20;;;;;;;1.45;0.30;;;;;;;27.41;30.58;96657.50;5032636;28;20591;-36
2021/05/19 05:31:46;;;;;;;0.43;0.20;;;;;;;27.40;30.70;96659.28;5029746;28;20080;-34
2021/05/19 05:34:11;;;;;;;0.40;0.20;;;;;;;27.39;30.49;96658.41;5035147;28;20078;-31
2021/05/19 05:36:37;;;;;;;0.65;0.20;;;;;;;27.39;30.63;96666.31;5035362;28;20033;-38
2021/05/19 05:39:03;;;;;;;0.28;0.20;;;;;;;27.39;30.75;96663.69;5035699;28;20033;-33
2021/05/19 05:41:28;;;;;;;0.40;0.20;;;;;;;27.41;30.67;96660.97;5029579;28;20025;-35
2021/05/19 05:43:54;;;;;;;1.25;0.28;;;;;;;27.41;30.56;96660.13;5035319;28;20025;-32
2021/05/19 05:46:19;;;;;;;2.75;0.20;;;;;;;27.41;30.68;96662.75;5031386;28;20020;-35
2021/05/19 05:48:45;;;;;;;1.13;0.10;;;;;;;27.41;30.65;96665.41;5031161;28;20494;-33
2021/05/19 05:51:10;;;;;;;0.43;0.28;;;;;;;27.41;30.64;96662.75;5026382;28;20068;-35
2021/05/19 05:53:35;;;;;;;1.15;0.13;;;;;;;27.41;30.59;96662.75;5028232;28;20422;-30
2021/05/19 05:56:01;;;;;;;2.28;0.32;;;;;;;27.41;30.70;96665.41;5031778;28;20021;-33
2021/05/19 05:58:26;;;;;;;0.65;0.10;;;;;;;27.41;30.63;96654.88;5024701;28;20036;-31
2021/05/19 06:00:52;;;;;;;0.82;0.25;;;;;;;27.41;30.48;96670.66;5026842;28;23377;-34
2021/05/19 06:03:17;;;;;;;0.80;0.20;;;;;;;27.39;30.77;96662.84;5029207;28;20036;-30
2021/05/19 06:05:42;;;;;;;2.33;0.20;;;;;;;27.39;30.57;96666.31;5026919;28;20028;-34
2021/05/19 06:08:09;;;;;;;1.15;0.38;;;;;;;27.38;30.53;96656.72;5035891;28;20029;-31
2021/05/19 06:10:34;;;;;;;1.58;0.28;;;;;;;27.39;30.67;96663.69;5015315;28;20585;-32
2021/05/19 06:13:00;;;;;;;1.52;0.40;;;;;;;27.40;30.69;96669.81;5028121;28;20048;-37
2021/05/19 06:15:25;;;;;;;0.57;0.30;;;;;;;27.40;30.66;96669.81;5033929;28;20024;-29
2021/05/19 06:17:51;;;;;;;2.63;0.20;;;;;;;27.38;30.66;96672.53;5034044;28;20514;-36
2021/05/19 06:20:16;;;;;;;1.48;0.30;;;;;;;27.39;30.68;96679.47;5023683;28;20036;-36
2021/05/19 06:22:42;;;;;;;0.40;0.40;;;;;;;27.39;30.67;96679.47;5035379;28;20074;-34
2021/05/19 06:25:07;;;;;;;1.85;0.57;;;;;;;27.39;30.74;96682.09;5028635;28;20025;-31
2021/05/19 06:27:33;;;;;;;0.65;0.35;;;;;;;27.41;30.65;96675.91;5032574;28;20751;-30
2021/05/19 06:29:58;;;;;;;2.78;0.40;;;;;;;27.40;30.76;96675.06;5034603;28;20044;-36
2021/05/19 06:32:24;;;;;;;1.75;0.40;;;;;;;27.39;30.65;96676.84;5011354;28;20037;-29
2021/05/19 06:34:49;;;;;;;4.70;0.45;;;;;;;27.42;30.54;96677.59;5025766;28;20025;-34
2021/05/19 06:37:15;;;;;;;4.88;1.30;;;;;;;27.43;30.29;96684.56;5028123;28;20036;-30
2021/05/19 06:39:40;;;;;;;3.20;0.80;;;;;;;27.42;30.10;96682.88;5025000;28;21061;-33
2021/05/19 06:42:05;;;;;;;1.92;0.60;;;;;;;27.42;30.28;96682.88;5030345;28;20915;-35
2021/05/19 06:44:31;;;;;;;2.75;0.57;;;;;;;27.43;30.23;96687.19;5033967;28;20033;-32
2021/05/19 06:46:57;;;;;;;4.60;0.50;;;;;;;27.43;30.24;96682.78;5027847;28;20044;-32
2021/05/19 06:49:22;;;;;;;1.48;0.50;;;;;;;27.44;30.13;96684.47;4996028;28;20721;-33
2021/05/19 06:51:48;;;;;;;2.63;0.73;;;;;;;27.45;30.28;96693.19;5028571;28;20021;-32
2021/05/19 06:54:13;;;;;;;3.03;0.63;;;;;;;27.46;30.32;96689.63;5028035;28;20110;-32
2021/05/19 06:56:44;;;;;;;3.10;0.73;;;;;;;27.46;30.32;96690.47;5027162;28;20039;-37
2021/05/19 07:00:12;;;;;;;3.80;0.70;;;;;;;-148.56;100.00;61375.16;5029912;28;20072;-36
2021/05/19 07:03:36;;;;;;;2.85;0.90;;;;;;;-148.56;100.00;61375.16;5026086;28;20045;-29
2021/05/19 07:07:00;;;;;;;2.42;0.65;;;;;;;-148.56;100.00;61375.16;5029554;28;20027;-31
2021/05/19 07:10:24;;;;;;;2.75;0.77;;;;;;;-148.56;100.00;61375.16;5027616;28;20613;-32
2021/05/19 07:12:55;;;;;;;1.65;0.93;;;;;;;27.46;30.32;96690.47;5027476;28;20061;-31
2021/05/19 07:15:22;;;;;;;2.15;0.95;;;;;;;27.46;30.42;96708.88;5025833;28;20450;-34
2021/05/19 07:17:47;;;;;;;0.65;0.43;;;;;;;27.46;30.53;96706.25;5027609;28;20581;-32
2021/05/19 07:20:13;;;;;;;1.77;0.52;;;;;;;27.48;30.17;96708.78;5026701;28;20044;-34
2021/05/19 07:22:39;;;;;;;2.55;0.68;;;;;;;27.48;30.35;96709.66;5026758;28;20029;-31
2021/05/19 07:25:05;;;;;;;1.75;0.77;;;;;;;27.50;30.41;96713.03;5028405;28;20036;-36
2021/05/19 07:27:30;;;;;;;4.88;0.60;;;;;;;27.48;30.42;96709.66;5027945;28;20024;-37
2021/05/19 07:29:56;;;;;;;1.42;0.70;;;;;;;27.50;30.63;96712.19;5026702;28;20029;-32
2021/05/19 07:32:21;;;;;;;1.80;0.52;;;;;;;27.50;30.56;96706.94;5029340;28;20135;-33
2021/05/19 07:34:47;;;;;;;0.65;0.50;;;;;;;27.50;30.58;96706.94;5029746;28;20089;-32
2021/05/19 07:37:12;;;;;;;3.17;0.60;;;;;;;27.51;30.44;96716.50;5026799;28;20033;-33
2021/05/19 07:39:37;;;;;;;0.93;0.45;;;;;;;27.52;30.61;96715.56;5027341;28;20364;-32
2021/05/19 07:42:03;;;;;;;0.93;0.60;;;;;;;27.51;30.46;96719.16;5020526;28;20012;-32
2021/05/19 07:44:29;;;;;;;2.25;0.60;;;;;;;27.53;30.63;96722.50;5020811;28;20036;-36
2021/05/19 07:46:54;;;;;;;4.28;0.80;;;;;;;27.54;30.55;96724.22;5039046;28;20778;-33
2021/05/19 07:49:19;;;;;;;2.17;0.55;;;;;;;27.54;30.76;96721.59;5036729;28;20037;-36
2021/05/19 07:51:45;;;;;;;1.08;0.43;;;;;;;27.54;30.73;96726.84;5034251;28;20064;-30
2021/05/19 07:54:14;;;;;;;2.22;0.70;;;;;;;27.55;30.73;96722.41;5034378;28;20037;-35
2021/05/19 07:56:56;;;;;;;1.00;0.60;;;;;;;27.55;30.66;96720.66;5035115;28;20143;-36
2021/05/19 07:59:24;;;;;;;2.63;0.60;;;;;;;27.55;30.77;96723.28;5038231;28;20386;-31
2021/05/19 08:02:03;;;;;;;1.95;0.60;;;;;;;27.53;30.72;96711.97;5036292;28;20592;-35
2021/05/19 08:04:30;;;;;;;16.23;2.03;;;;;;;27.53;29.09;96720.72;5035636;28;20381;-32
2021/05/19 08:06:56;;;;;;;4.15;1.52;;;;;;;27.41;26.51;96718.03;5038998;28;20021;-35
2021/05/19 08:09:21;;;;;;;3.78;1.50;;;;;;;27.27;25.11;96722.34;5033234;28;20110;-32
2021/05/19 08:11:47;;;;;;;2.65;1.15;;;;;;;27.10;25.79;96718.94;5035000;28;20414;-33
2021/05/19 08:14:14;;;;;;;1.63;1.02;;;;;;;26.98;26.38;96719.66;5037031;28;20058;-35
2021/05/19 08:16:40;;;;;;;6.43;1.00;;;;;;;26.91;26.58;96715.66;5035785;28;20039;-30
2021/05/19 08:19:05;;;;;;;4.53;1.10;;;;;;;26.85;26.88;96712.44;5035386;28;20527;-36
2021/05/19 08:21:30;;;;;;;2.60;0.95;;;;;;;26.83;27.13;96708.22;5032276;28;20032;-36
2021/05/19 08:23:56;;;;;;;3.30;0.90;;;;;;;26.83;27.39;96713.47;5004656;28;20023;-35
2021/05/19 08:26:21;;;;;;;1.67;0.88;;;;;;;26.83;27.52;96709.09;5026499;28;20028;-35
2021/05/19 08:28:47;;;;;;;4.82;1.00;;;;;;;26.84;27.57;96710.78;5034043;28;20028;-33
2021/05/19 08:31:13;;;;;;;2.85;1.10;;;;;;;26.86;27.92;96708.88;5032483;28;20470;-38
2021/05/19 08:33:40;;;;;;;3.10;0.85;;;;;;;26.89;28.04;96697.38;5021461;28;20037;-36
2021/05/19 08:36:06;;;;;;;3.28;0.73;;;;;;;26.92;28.07;96705.06;5034544;28;21034;-33
2021/05/19 08:38:31;;;;;;;1.77;1.10;;;;;;;26.96;28.26;96703.13;5039701;28;20020;-31
2021/05/19 08:41:02;;;;;;;3.40;0.90;;;;;;;26.99;28.35;96705.56;5030075;28;20031;-36
2021/05/19 08:43:27;;;;;;;3.45;1.08;;;;;;;27.03;28.47;96704.44;5014673;28;20033;-36
2021/05/19 08:45:53;;;;;;;7.18;1.13;;;;;;;27.07;28.49;96694.56;5026703;28;20037;-35
2021/05/19 08:48:18;;;;;;;7.25;0.77;;;;;;;27.08;28.71;96693.66;5027044;28;20040;-33
2021/05/19 08:50:44;;;;;;;20.17;1.20;;;;;;;27.12;28.67;96692.53;5027204;28;20037;-33
2021/05/19 08:53:09;;;;;;;3.33;1.02;;;;;;;27.15;28.36;96697.59;5024289;28;20078;-31
2021/05/19 08:55:35;;;;;;;5.32;1.30;;;;;;;27.15;28.24;96694.13;5026110;28;20087;-35
2021/05/19 08:58:00;;;;;;;7.78;1.65;;;;;;;27.17;28.34;96694.88;5028213;28;20056;-31
2021/05/19 09:00:28;;;;;;;8.95;1.95;;;;;;;27.19;28.37;96682.50;5021629;28;20230;-34
2021/05/19 09:03:15;;;;;;;5.85;2.10;;;;;;;27.19;28.52;96682.50;5027663;28;20025;-36
2021/05/19 09:05:42;;;;;;;11.25;2.33;;;;;;;27.21;28.71;96685.88;5036819;28;20048;-31
2021/05/19 09:08:09;;;;;;;10.57;2.70;;;;;;;27.22;28.81;96682.28;5036880;28;20026;-32
2021/05/19 09:10:36;;;;;;;11.52;2.20;;;;;;;27.23;28.74;96673.47;5034956;28;20127;-33
2021/05/19 09:13:01;;;;;;;10.05;2.50;;;;;;;27.23;28.93;96673.47;5030090;28;20161;-34
2021/05/19 09:15:44;;;;;;;11.68;2.40;;;;;;;27.23;28.88;96666.41;5029158;28;20809;-32
2021/05/19 09:18:10;;;;;;;7.95;2.35;;;;;;;27.26;29.05;96670.63;5037605;28;20531;-34
2021/05/19 09:20:42;;;;;;;10.73;2.30;;;;;;;27.28;29.19;96668.78;5032940;28;20028;-32
2021/05/19 09:23:14;;;;;;;7.43;2.10;;;;;;;27.29;29.09;96672.22;5039199;28;20038;-35
2021/05/19 09:25:40;;;;;;;8.50;2.28;;;;;;;27.30;29.37;96663.44;5036187;28;20080;-34
2021/05/19 09:28:07;;;;;;;14.77;2.30;;;;;;;27.30;29.28;96664.25;5036482;28;20029;-31
2021/05/19 09:30:33;;;;;;;4.88;2.15;;;;;;;27.33;29.32;96673.75;5032098;28;20647;-35
2021/05/19 09:33:18;;;;;;;5.22;1.60;;;;;;;27.34;29.29;96668.38;5036314;28;20031;-32
2021/05/19 09:35:44;;;;;;;8.10;2.13;;;;;;;27.35;29.54;96664.81;5038071;28;20545;-35
2021/05/19 09:38:29;;;;;;;6.95;2.10;;;;;;;27.36;29.49;96674.41;5038507;28;20140;-35
2021/05/19 09:41:15;;;;;;;7.63;2.08;;;;;;;27.37;29.37;96668.22;5038029;28;20013;-31
2021/05/19 09:43:40;;;;;;;4.75;1.98;;;;;;;27.38;29.54;96661.13;5040112;28;20051;-34
2021/05/19 09:46:13;;;;;;;8.68;2.30;;;;;;;27.39;29.44;96655.78;5042166;28;20116;-30
2021/05/19 09:48:39;;;;;;;5.45;1.98;;;;;;;27.41;29.59;96662.75;5034924;28;20070;-34
2021/05/19 09:51:04;;;;;;;3.92;1.60;;;;;;;27.41;29.64;96663.59;5037039;28;20025;-34
2021/05/19 09:53:35;;;;;;;5.10;2.00;;;;;;;27.43;29.64;96671.41;5039900;28;20036;-32
2021/05/19 09:56:01;;;;;;;5.18;1.95;;;;;;;27.44;29.68;96666.03;5025554;28;20033;-35
2021/05/19 09:58:36;;;;;;;5.18;2.00;;;;;;;27.46;29.66;96656.25;5043757;28;20522;-34
2021/05/19 10:01:03;;;;;;;6.72;1.70;;;;;;;27.47;29.63;96657.09;5038725;28;20076;-29
2021/05/19 10:03:29;;;;;;;7.18;2.15;;;;;;;27.48;29.73;96654.38;5042414;28;20037;-35
2021/05/19 10:06:11;;;;;;;4.22;1.80;;;;;;;27.50;29.76;96659.56;5034600;28;20024;-32
2021/05/19 10:08:36;;;;;;;6.20;1.80;;;;;;;27.53;29.74;96661.97;5038996;28;20041;-32
2021/05/19 10:11:05;;;;;;;5.25;1.88;;;;;;;27.54;29.75;96653.16;5040770;28;20552;-33
2021/05/19 10:13:31;;;;;;;7.35;1.92;;;;;;;27.56;29.74;96648.63;5038654;28;20029;-33
2021/05/19 10:16:04;;;;;;;6.50;2.08;;;;;;;27.58;29.80;96656.44;5026669;28;20048;-30
2021/05/19 10:18:31;;;;;;;4.53;1.92;;;;;;;27.57;29.79;96650.31;5027590;28;20068;-34
2021/05/19 10:20:57;;;;;;;7.50;2.08;;;;;;;27.60;29.78;96650.13;5036645;28;20041;-34
2021/05/19 10:23:47;;;;;;;4.90;1.75;;;;;;;27.61;29.75;96641.31;5038238;28;20178;-38
2021/05/19 10:26:13;;;;;;;5.03;2.00;;;;;;;27.63;29.86;96642.09;5037265;28;20276;-32
2021/05/19 10:28:42;;;;;;;5.68;2.03;;;;;;;27.64;29.89;96635.88;5041218;28;20036;-33
2021/05/19 10:31:41;;;;;;;9.07;2.42;;;;;;;27.65;29.85;96632.28;5038137;28;20048;-37
2021/05/19 10:34:07;;;;;;;6.82;2.13;;;;;;;27.69;29.94;96637.38;5033533;28;20094;-32
2021/05/19 10:36:42;;;;;;;4.70;2.05;;;;;;;27.69;30.02;96637.38;5036427;28;20791;-31
2021/05/19 10:39:08;;;;;;;4.78;2.10;;;;;;;27.70;29.92;96628.53;5039327;28;20033;-30
2021/05/19 10:41:41;;;;;;;6.18;1.95;;;;;;;27.72;29.94;96631.91;5037129;28;20024;-30
2021/05/19 10:44:09;;;;;;;5.68;1.95;;;;;;;27.73;29.89;96630.97;5037699;28;20036;-30
2021/05/19 10:46:55;;;;;;;6.60;1.75;;;;;;;27.74;30.00;96627.38;5038744;28;20021;-32
2021/05/19 10:49:21;;;;;;;4.65;1.90;;;;;;;27.75;30.00;96627.28;5026717;28;20033;-37
2021/05/19 10:57:59;;;;;;;5.30;1.65;;;;;;;27.79;30.07;96617.41;5040704;28;20035;-30
2021/05/19 11:00:28;;;;;;;4.75;1.70;;;;;;;27.80;29.98;96611.19;5038085;28;20593;-35
2021/05/19 11:03:00;;;;;;;3.92;1.65;;;;;;;27.81;29.99;96615.53;5038847;28;20500;-36
2021/05/19 11:05:55;;;;;;;4.07;1.75;;;;;;;27.81;30.14;96620.78;5041261;28;20108;-30
2021/05/19 11:08:22;;;;;;;4.88;1.95;;;;;;;27.81;30.18;96615.53;5028351;28;20041;-32
2021/05/19 11:10:49;;;;;;;5.55;1.52;;;;;;;27.83;30.04;96618.88;5039701;28;20025;-33
2021/05/19 11:13:22;;;;;;;4.72;1.83;;;;;;;27.83;30.08;96618.88;5039345;28;20033;-29
2021/05/19 11:18:34;;;;;;;4.72;1.88;;;;;;;27.84;30.12;96610.03;5036273;28;20039;-33
2021/05/19 11:21:00;;;;;;;4.72;1.70;;;;;;;27.83;30.08;96611.00;5038275;28;20033;-31
2021/05/19 11:23:26;;;;;;;4.38;1.70;;;;;;;27.85;30.26;96605.63;5032382;28;20036;-33
2021/05/19 11:26:10;;;;;;;4.85;1.80;;;;;;;27.85;30.09;96606.50;5039891;28;20033;-33
2021/05/19 11:28:35;;;;;;;5.63;1.85;;;;;;;27.85;30.14;96603.84;5039160;28;20063;-32
2021/05/19 11:31:14;;;;;;;6.07;2.05;;;;;;;27.86;30.22;96597.63;5038058;28;20746;-30
2021/05/19 11:33:56;;;;;;;5.63;2.00;;;;;;;27.86;30.15;96587.09;5037705;28;20053;-33
2021/05/19 11:36:40;;;;;;;8.55;2.15;;;;;;;27.87;30.18;96588.78;5037951;28;20611;-36
2021/05/19 11:39:38;;;;;;;4.63;1.83;;;;;;;27.88;30.19;96600.16;5039383;28;20029;-36
2021/05/19 11:42:29;;;;;;;4.15;1.70;;;;;;;27.88;30.21;96595.72;5037600;28;20108;-31
2021/05/19 11:45:00;;;;;;;4.40;2.13;;;;;;;27.88;30.24;96597.53;5035443;28;20043;-34
2021/05/19 11:47:26;;;;;;;;;;;;;;;27.90;30.22;96595.63;5037931;28;20064;-34
2021/05/19 11:50:19;;;;;;;3.70;1.45;;;;;;;27.90;30.20;96595.63;5037377;28;19951;-36